ABX weather

Albury Airport
Albury, New South Wales, Australia

Public forecast

Using degrees Celsius for public forecast. Weather courtesy of forecast.io.

METAR (pilot weather report)

Retrieved 2018/04/24 06:00 UTC (27 minutes ago):

YMAY 240600Z AUTO 14005KT 9999 // NCD 26/09 Q1016

TAF (pilot weather forecast)

Forecast is more than 12 hours old.

Closest forecast is Wangaratta Airport, 37.8 nm (70.0 km) WSW. Retrieved 2018/04/23 02:30 UTC (1 day ago):

TAF YWGT 230110Z 2302/2314 VRB05KT CAVOK